createdAt,value
2022-08-24T00:03:00.968Z,21.41
2022-08-24T00:06:05.162Z,21.44
2022-08-24T00:09:09.133Z,21.61
2022-08-24T00:12:11.832Z,21.61
2022-08-24T00:15:18.233Z,21.52
2022-08-24T00:18:20.825Z,21.45
2022-08-24T00:21:23.641Z,21.42
2022-08-24T00:24:28.220Z,21.30
2022-08-24T00:27:30.896Z,21.28
2022-08-24T00:30:35.265Z,21.06
2022-08-24T00:33:38.418Z,21.34
2022-08-24T00:36:42.950Z,21.33
2022-08-24T00:39:46.934Z,21.31
2022-08-24T00:42:50.659Z,21.28
2022-08-24T00:46:06.047Z,21.44
2022-08-24T00:49:13.210Z,21.02
2022-08-24T00:52:20.401Z,21.17
2022-08-24T00:55:28.940Z,21.15
2022-08-24T00:58:36.807Z,20.91
2022-08-24T01:01:42.966Z,21.13
2022-08-24T01:04:50.479Z,21.16
2022-08-24T01:07:53.510Z,20.95
2022-08-24T01:11:02.158Z,20.74
2022-08-24T01:14:06.084Z,20.83
2022-08-24T01:17:26.448Z,21.02
2022-08-24T01:20:29.145Z,21.06
2022-08-24T01:23:39.569Z,20.60
2022-08-24T01:26:46.933Z,20.49
2022-08-24T01:29:51.063Z,20.45
2022-08-24T01:32:55.422Z,20.71
2022-08-24T01:36:02.024Z,20.76
2022-08-24T01:39:12.175Z,20.57
2022-08-24T01:42:15.328Z,20.74
2022-08-24T01:45:20.130Z,20.83
2022-08-24T01:48:23.630Z,20.79
2022-08-24T01:51:29.900Z,20.79
2022-08-24T01:54:34.178Z,20.70
2022-08-24T01:57:36.757Z,20.42
2022-08-24T02:00:39.686Z,20.70
2022-08-24T02:03:42.260Z,20.69
2022-08-24T02:06:45.660Z,20.60
2022-08-24T02:09:49.775Z,20.57
2022-08-24T02:12:58.612Z,20.55
2022-08-24T02:16:01.395Z,20.51
2022-08-24T02:19:04.186Z,20.32
2022-08-24T02:22:07.322Z,20.30
2022-08-24T02:25:11.387Z,20.32
2022-08-24T02:28:16.986Z,20.43
2022-08-24T02:31:19.600Z,20.37
2022-08-24T02:34:22.441Z,20.09
2022-08-24T02:37:25.001Z,20.17
2022-08-24T02:40:29.747Z,20.23
2022-08-24T02:43:32.491Z,20.30
2022-08-24T02:46:42.630Z,20.33
2022-08-24T02:49:45.621Z,20.31
2022-08-24T02:52:48.612Z,20.25
2022-08-24T02:55:53.022Z,20.24
2022-08-24T02:58:55.626Z,20.26
2022-08-24T03:01:58.456Z,20.29
2022-08-24T03:05:01.555Z,20.27
2022-08-24T03:08:05.126Z,20.19
2022-08-24T03:11:09.393Z,20.20
2022-08-24T03:14:12.266Z,20.15
2022-08-24T03:17:14.898Z,20.13
2022-08-24T03:20:21.121Z,20.05
2022-08-24T03:23:24.580Z,19.95
2022-08-24T03:26:28.789Z,19.99
2022-08-24T03:29:33.703Z,20.03
2022-08-24T03:32:36.573Z,20.04
2022-08-24T03:35:39.665Z,19.71
2022-08-24T03:38:42.691Z,19.93
2022-08-24T03:41:46.661Z,19.91
2022-08-24T03:44:49.238Z,19.85
2022-08-24T03:47:52.542Z,19.84
2022-08-24T03:50:55.702Z,19.79
2022-08-24T03:54:00.705Z,20.08
2022-08-24T03:57:04.784Z,19.64
2022-08-24T04:00:11.662Z,19.82
2022-08-24T04:03:15.225Z,19.81
2022-08-24T04:06:19.951Z,19.80
2022-08-24T04:09:22.524Z,19.71
2022-08-24T04:12:26.533Z,19.76
2022-08-24T04:15:31.622Z,19.69
2022-08-24T04:18:34.303Z,19.62
2022-08-24T04:21:38.116Z,19.64
2022-08-24T04:24:40.741Z,19.66
2022-08-24T04:27:44.697Z,19.59
2022-08-24T04:30:50.344Z,19.57
2022-08-24T04:33:53.994Z,19.59
2022-08-24T04:36:56.771Z,19.60
2022-08-24T04:39:59.475Z,19.65
2022-08-24T04:43:03.661Z,19.47
2022-08-24T04:46:08.395Z,19.54
2022-08-24T04:49:11.407Z,19.54
2022-08-24T04:52:13.985Z,19.58
2022-08-24T04:55:16.646Z,19.62
2022-08-24T04:58:20.673Z,19.68
2022-08-24T05:01:25.303Z,19.53
2022-08-24T05:04:27.943Z,19.46
2022-08-24T05:07:32.157Z,19.53
2022-08-24T05:10:34.810Z,19.66
2022-08-24T05:13:39.136Z,19.74
2022-08-24T05:16:52.431Z,19.75
2022-08-24T05:19:55.520Z,19.80
2022-08-24T05:23:02.514Z,19.62
2022-08-24T05:26:08.149Z,19.86
2022-08-24T05:29:12.446Z,19.91
2022-08-24T05:32:15.202Z,19.87
2022-08-24T05:35:17.901Z,20.01
2022-08-24T05:38:20.497Z,20.11
2022-08-24T05:41:23.878Z,20.17
2022-08-24T05:44:31.142Z,20.12
2022-08-24T05:47:34.604Z,20.10
2022-08-24T05:50:37.822Z,20.28
2022-08-24T05:53:41.619Z,20.12
2022-08-24T05:56:44.709Z,20.33
2022-08-24T05:59:48.798Z,20.24
2022-08-24T06:02:52.819Z,20.37
2022-08-24T06:05:55.942Z,20.29
2022-08-24T06:09:00.344Z,20.29
2022-08-24T06:12:03.398Z,20.17
2022-08-24T06:15:08.242Z,20.47
2022-08-24T06:18:11.002Z,20.75
2022-08-24T06:21:16.983Z,20.63
2022-08-24T06:24:40.947Z,20.75
2022-08-24T06:27:42.645Z,20.79
2022-08-24T06:30:46.602Z,20.80
2022-08-24T06:33:49.255Z,20.98
2022-08-24T06:36:52.749Z,21.37
2022-08-24T06:39:58.113Z,21.34
2022-08-24T06:43:04.293Z,21.51
2022-08-24T06:46:08.567Z,21.54
2022-08-24T06:49:11.238Z,21.78
2022-08-24T06:52:13.885Z,21.65
2022-08-24T06:55:16.594Z,21.80
2022-08-24T06:58:19.532Z,21.72
2022-08-24T07:01:25.735Z,21.87
2022-08-24T07:04:28.934Z,22.05
2022-08-24T07:07:31.537Z,22.33
2022-08-24T07:10:34.690Z,22.46
2022-08-24T07:13:37.379Z,22.65
2022-08-24T07:16:41.309Z,22.64
2022-08-24T07:19:43.877Z,22.68
2022-08-24T07:22:46.641Z,22.98
2022-08-24T07:25:54.217Z,22.97
2022-08-24T07:29:05.344Z,22.80
2022-08-24T07:32:10.105Z,22.98
2022-08-24T07:35:12.716Z,23.08
2022-08-24T07:38:15.343Z,23.31
2022-08-24T07:41:40.384Z,23.29
2022-08-24T07:44:40.789Z,23.35
2022-08-24T07:47:54.677Z,23.64
2022-08-24T07:50:59.578Z,23.91
2022-08-24T07:54:03.655Z,24.12
2022-08-24T07:57:09.919Z,24.14
2022-08-24T08:00:16.957Z,24.14
2022-08-24T08:03:21.789Z,24.27
2022-08-24T08:06:24.382Z,24.46
2022-08-24T08:09:27.022Z,24.61
2022-08-24T08:12:29.636Z,24.83
2022-08-24T08:15:32.860Z,25.17
2022-08-24T08:18:37.094Z,25.09
2022-08-24T08:22:00.288Z,25.34
2022-08-24T08:25:02.896Z,25.59
2022-08-24T08:28:18.459Z,25.93
2022-08-24T08:31:28.245Z,26.20
2022-08-24T08:34:32.347Z,26.21
2022-08-24T08:40:57.036Z,26.33
2022-08-24T08:44:04.754Z,26.62
2022-08-24T08:47:23.309Z,26.83
2022-08-24T08:50:32.682Z,26.99
2022-08-24T08:54:06.653Z,27.53
2022-08-24T08:57:51.209Z,27.77
2022-08-24T09:01:05.148Z,28.10
2022-08-24T09:04:22.864Z,28.30
2022-08-24T09:07:43.747Z,28.37
2022-08-24T09:10:56.639Z,28.44
2022-08-24T09:14:36.130Z,28.55
2022-08-24T09:18:04.714Z,28.86
2022-08-24T09:21:24.012Z,29.07
2022-08-24T09:24:42.037Z,29.32
2022-08-24T09:28:00.641Z,29.65
2022-08-24T09:31:22.916Z,29.83
2022-08-24T09:34:39.941Z,29.60
2022-08-24T09:37:58.779Z,29.82
2022-08-24T09:41:25.080Z,30.11
2022-08-24T09:44:48.173Z,30.79
2022-08-24T09:48:09.502Z,30.84
2022-08-24T09:51:46.948Z,30.90
2022-08-24T09:55:26.670Z,30.94
2022-08-24T09:58:50.397Z,30.79
2022-08-24T10:02:14.197Z,31.38
2022-08-24T10:05:27.820Z,31.84
2022-08-24T10:08:45.298Z,31.66
2022-08-24T10:11:56.214Z,31.75
2022-08-24T10:15:06.330Z,32.13
2022-08-24T10:18:38.623Z,33.00
2022-08-24T10:21:54.082Z,33.07
2022-08-24T10:25:10.410Z,32.54
2022-08-24T10:28:39.989Z,32.29
2022-08-24T10:32:01.034Z,32.66
2022-08-24T10:35:09.429Z,32.87
2022-08-24T10:38:57.725Z,32.74
2022-08-24T10:42:54.573Z,33.47
2022-08-24T10:46:24.085Z,33.33
2022-08-24T10:50:20.180Z,33.38
2022-08-24T10:53:27.355Z,33.96
2022-08-24T10:56:39.882Z,34.05
2022-08-24T10:59:54.938Z,34.35
2022-08-24T11:03:11.946Z,34.40
2022-08-24T11:06:16.315Z,34.79
2022-08-24T11:09:20.272Z,34.74
2022-08-24T11:12:27.370Z,35.00
2022-08-24T11:15:29.977Z,34.72
2022-08-24T11:18:49.373Z,34.36
2022-08-24T11:21:53.768Z,35.15
2022-08-24T11:25:00.211Z,35.43
2022-08-24T11:28:09.568Z,35.49
2022-08-24T11:31:14.306Z,35.14
2022-08-24T11:34:19.165Z,35.49
2022-08-24T11:37:29.126Z,35.64
2022-08-24T11:40:40.750Z,35.54
2022-08-24T11:43:58.926Z,35.23
2022-08-24T11:47:11.563Z,35.39
2022-08-24T11:50:25.581Z,35.99
2022-08-24T11:57:00.025Z,35.99
2022-08-24T12:00:07.333Z,35.37
2022-08-24T12:03:28.190Z,35.49
2022-08-24T12:06:43.081Z,36.04
2022-08-24T12:10:00.725Z,36.65
2022-08-24T12:13:11.698Z,35.93
2022-08-24T12:16:22.263Z,35.96
2022-08-24T12:19:29.688Z,35.44
2022-08-24T12:22:33.546Z,35.44
2022-08-24T12:25:53.692Z,35.63
2022-08-24T12:29:03.636Z,35.86
2022-08-24T12:32:11.190Z,35.63
2022-08-24T12:35:19.390Z,36.09
2022-08-24T12:38:26.897Z,35.74
2022-08-24T12:41:34.338Z,35.88
2022-08-24T12:44:46.769Z,36.23
2022-08-24T12:47:55.006Z,36.25
2022-08-24T12:51:11.943Z,36.29
2022-08-24T12:54:40.389Z,36.39
2022-08-24T12:57:55.052Z,35.91
2022-08-24T13:01:06.061Z,35.92
2022-08-24T13:04:16.478Z,36.09
2022-08-24T13:07:30.762Z,35.73
2022-08-24T13:10:42.194Z,36.49
2022-08-24T13:14:05.452Z,36.33
2022-08-24T13:17:13.498Z,36.02
2022-08-24T13:20:21.296Z,36.13
2022-08-24T13:23:24.963Z,36.09
2022-08-24T13:26:27.668Z,36.12
2022-08-24T13:29:35.492Z,36.15
2022-08-24T13:32:44.281Z,36.34
2022-08-24T13:36:16.695Z,36.05
2022-08-24T13:39:40.381Z,35.83
2022-08-24T13:43:03.981Z,36.05
2022-08-24T13:46:20.116Z,35.35
2022-08-24T13:49:38.820Z,35.57
2022-08-24T13:53:04.848Z,35.59
2022-08-24T13:56:32.597Z,35.53
2022-08-24T13:59:56.852Z,35.23
2022-08-24T14:03:14.983Z,35.00
2022-08-24T14:06:28.480Z,34.81
2022-08-24T14:09:41.975Z,34.86
2022-08-24T14:13:07.635Z,34.67
2022-08-24T14:16:43.777Z,34.03
2022-08-24T14:20:02.166Z,33.72
2022-08-24T14:23:17.835Z,32.99
2022-08-24T14:27:01.957Z,32.96
2022-08-24T14:30:39.659Z,32.62
2022-08-24T14:33:50.626Z,32.51
2022-08-24T14:36:59.769Z,32.26
2022-08-24T14:40:17.944Z,31.89
2022-08-24T14:43:30.981Z,31.54
2022-08-24T14:46:41.582Z,31.06
2022-08-24T14:49:58.405Z,30.97
2022-08-24T14:53:18.812Z,31.12
2022-08-24T14:56:43.914Z,30.71
2022-08-24T14:59:58.613Z,30.57
2022-08-24T15:03:25.810Z,30.59
2022-08-24T15:06:38.439Z,30.41
2022-08-24T15:09:44.887Z,30.51
2022-08-24T15:12:59.039Z,30.52
2022-08-24T15:16:11.730Z,30.29
2022-08-24T15:19:23.007Z,30.04
2022-08-24T15:22:40.959Z,30.15
2022-08-24T15:25:51.144Z,30.10
2022-08-24T15:28:56.951Z,29.91
2022-08-24T15:32:05.055Z,30.00
2022-08-24T15:35:08.057Z,30.14
2022-08-24T15:38:22.288Z,29.82
2022-08-24T15:41:31.025Z,29.38
2022-08-24T15:44:36.725Z,29.60
2022-08-24T15:47:41.651Z,29.58
2022-08-24T15:50:48.977Z,29.58
2022-08-24T15:53:51.601Z,29.65
2022-08-24T15:56:57.428Z,29.74
2022-08-24T16:00:12.697Z,29.74
2022-08-24T16:03:21.453Z,29.49
2022-08-24T16:06:27.682Z,29.60
2022-08-24T16:09:37.573Z,29.26
2022-08-24T16:12:40.574Z,29.54
2022-08-24T16:15:51.223Z,29.29
2022-08-24T16:18:58.007Z,28.89
2022-08-24T16:22:03.826Z,28.98
2022-08-24T16:25:15.769Z,29.04
2022-08-24T16:28:35.703Z,29.18
2022-08-24T16:31:51.767Z,29.16
2022-08-24T16:34:56.849Z,28.92
2022-08-24T16:37:59.543Z,29.06
2022-08-24T16:41:04.055Z,29.00
2022-08-24T16:44:06.705Z,28.97
2022-08-24T16:47:11.230Z,28.70
2022-08-24T16:50:15.031Z,28.79
2022-08-24T16:53:17.686Z,28.62
2022-08-24T16:56:20.390Z,28.49
2022-08-24T16:59:27.469Z,28.55
2022-08-24T17:02:31.494Z,28.62
2022-08-24T17:05:34.717Z,28.55
2022-08-24T17:08:37.390Z,28.58
2022-08-24T17:11:40.361Z,28.51
2022-08-24T17:14:44.308Z,28.43
2022-08-24T17:17:56.117Z,28.31
2022-08-24T17:21:01.234Z,28.32
2022-08-24T17:24:04.366Z,28.31
2022-08-24T17:27:07.198Z,28.04
2022-08-24T17:30:11.306Z,28.02
2022-08-24T17:33:15.236Z,27.97
2022-08-24T17:36:21.219Z,27.91
2022-08-24T17:39:26.736Z,27.88
2022-08-24T17:42:49.525Z,27.79
2022-08-24T17:45:53.177Z,27.64
2022-08-24T17:48:57.796Z,27.57
2022-08-24T17:52:00.611Z,27.44
2022-08-24T17:55:03.229Z,27.36
2022-08-24T17:58:05.833Z,27.28
2022-08-24T18:01:08.452Z,27.23
2022-08-24T18:04:12.629Z,27.12
2022-08-24T18:07:35.864Z,27.00
2022-08-24T18:10:42.523Z,26.97
2022-08-24T18:13:45.109Z,26.90
2022-08-24T18:16:54.014Z,26.80
2022-08-24T18:20:01.070Z,26.69
2022-08-24T18:23:03.931Z,26.57
2022-08-24T18:26:09.320Z,26.51
2022-08-24T18:29:15.746Z,26.38
2022-08-24T18:32:18.337Z,26.24
2022-08-24T18:35:22.796Z,26.19
2022-08-24T18:38:26.704Z,26.06
2022-08-24T18:41:35.682Z,26.02
2022-08-24T18:44:39.405Z,25.87
2022-08-24T18:47:42.323Z,25.71
2022-08-24T18:50:46.255Z,25.59
2022-08-24T18:53:49.214Z,25.44
2022-08-24T18:56:52.250Z,25.47
2022-08-24T18:59:55.038Z,25.34
2022-08-24T19:03:02.221Z,25.30
2022-08-24T19:06:07.296Z,25.15
2022-08-24T19:09:09.929Z,25.08
2022-08-24T19:12:13.169Z,24.93
2022-08-24T19:15:31.923Z,24.86
2022-08-24T19:18:39.313Z,24.80
2022-08-24T19:21:43.321Z,24.75
2022-08-24T19:24:47.034Z,24.73
2022-08-24T19:27:53.678Z,24.70
2022-08-24T19:30:58.086Z,24.57
2022-08-24T19:34:03.535Z,24.55
2022-08-24T19:37:07.894Z,24.56
2022-08-24T19:40:11.472Z,24.47
2022-08-24T19:43:14.910Z,24.34
2022-08-24T19:46:17.915Z,24.42
2022-08-24T19:49:20.850Z,24.42
2022-08-24T19:52:25.115Z,24.32
2022-08-24T19:55:28.029Z,24.31
2022-08-24T19:58:38.048Z,24.27
2022-08-24T20:01:40.711Z,24.01
2022-08-24T20:04:43.319Z,24.05
2022-08-24T20:07:47.745Z,23.98
2022-08-24T20:10:52.851Z,23.94
2022-08-24T20:13:55.517Z,23.88
2022-08-24T20:16:58.136Z,23.82
2022-08-24T20:20:02.148Z,23.87
2022-08-24T20:23:07.157Z,23.81
2022-08-24T20:26:11.936Z,23.71
2022-08-24T20:29:15.106Z,23.63
2022-08-24T20:32:18.579Z,23.53
2022-08-24T20:35:21.229Z,23.53
2022-08-24T20:38:25.727Z,23.52
2022-08-24T20:41:35.377Z,23.57
2022-08-24T20:44:37.948Z,23.47
2022-08-24T20:47:44.878Z,23.42
2022-08-24T20:50:47.650Z,23.40
2022-08-24T20:53:51.593Z,23.31
2022-08-24T20:56:54.220Z,23.26
2022-08-24T20:59:56.781Z,23.23
2022-08-24T21:02:59.411Z,23.20
2022-08-24T21:06:02.571Z,23.16
2022-08-24T21:09:07.361Z,23.20
2022-08-24T21:12:16.700Z,23.13
2022-08-24T21:15:20.846Z,23.14
2022-08-24T21:18:23.404Z,23.07
2022-08-24T21:21:28.435Z,22.96
2022-08-24T21:24:32.362Z,22.90
2022-08-24T21:27:41.566Z,22.98
2022-08-24T21:30:44.177Z,22.90
2022-08-24T21:34:04.398Z,22.85
2022-08-24T21:37:07.216Z,22.79
2022-08-24T21:40:12.428Z,22.77
2022-08-24T21:43:17.860Z,22.75
2022-08-24T21:46:21.964Z,22.80
2022-08-24T21:49:25.030Z,22.75
2022-08-24T21:52:27.693Z,22.73
2022-08-24T21:55:31.652Z,22.72
2022-08-24T21:58:34.295Z,22.70
2022-08-24T22:01:38.672Z,22.66
2022-08-24T22:04:41.473Z,22.69
2022-08-24T22:07:44.388Z,22.65
2022-08-24T22:10:50.205Z,22.64
2022-08-24T22:13:53.919Z,22.56
2022-08-24T22:16:56.511Z,22.60
2022-08-24T22:19:59.106Z,22.59
2022-08-24T22:23:01.710Z,22.56
2022-08-24T22:26:06.645Z,22.54
2022-08-24T22:29:11.115Z,22.57
2022-08-24T22:32:13.719Z,22.56
2022-08-24T22:35:16.365Z,22.59
2022-08-24T22:38:19.439Z,22.52
2022-08-24T22:41:23.683Z,22.52
2022-08-24T22:44:27.686Z,22.55
2022-08-24T22:47:31.677Z,22.55
2022-08-24T22:50:34.295Z,22.50
2022-08-24T22:53:37.012Z,22.48
2022-08-24T22:56:43.593Z,22.59
2022-08-24T22:59:46.210Z,22.52
2022-08-24T23:02:48.772Z,22.46
2022-08-24T23:05:51.318Z,22.45
2022-08-24T23:08:53.965Z,22.45
2022-08-24T23:11:58.239Z,22.42
2022-08-24T23:15:01.315Z,22.42
2022-08-24T23:18:23.884Z,22.07
2022-08-24T23:21:25.955Z,22.33
2022-08-24T23:24:30.352Z,22.23
2022-08-24T23:27:38.408Z,22.40
2022-08-24T23:30:41.516Z,22.30
2022-08-24T23:33:44.206Z,22.29
2022-08-24T23:36:46.965Z,22.36
2022-08-24T23:39:49.574Z,22.39
2022-08-24T23:42:53.504Z,22.25
2022-08-24T23:45:56.509Z,22.27
2022-08-24T23:49:03.327Z,22.30
2022-08-24T23:52:06.463Z,22.22
2022-08-24T23:55:20.889Z,22.20
2022-08-24T23:58:26.192Z,22.22
